Time;durP1;ratioP1;P1;durP2;ratioP2;P2;SDS_P1;SDS_P2;PMS_P1;PMS_P2;Temp;Humidity;BMP_temperature;BMP_pressure;BME280_temperature;BME280_humidity;BME280_pressure;Samples;Min_cycle;Max_cycle;Signal;HPM_P1;HPM_P2
2023/12/11 08:27:37;;;;;;;7.13;0.73;;;11.10;99.90;;;;;;3130720;23;20258;-76
2023/12/11 08:30:04;;;;;;;4.93;0.90;;;11.10;99.90;;;;;;4897689;29;20289;-77
2023/12/11 08:32:31;;;;;;;6.77;0.87;;;11.00;99.90;;;;;;4899773;29;20249;-76
2023/12/11 08:35:03;;;;;;;4.53;0.60;;;11.10;99.90;;;;;;4899749;29;20230;-77
2023/12/11 08:37:30;;;;;;;4.47;0.70;;;11.10;99.90;;;;;;4899708;29;20218;-72
2023/12/11 08:39:57;;;;;;;6.43;0.87;;;11.00;99.90;;;;;;4899425;29;20211;-76
2023/12/11 08:42:23;;;;;;;6.57;0.90;;;11.00;99.90;;;;;;4899492;29;20616;-75
2023/12/11 08:44:52;;;;;;;9.13;1.77;;;11.10;99.90;;;;;;4894728;29;20266;-83
2023/12/11 08:47:19;;;;;;;5.93;0.90;;;11.10;99.90;;;;;;4899163;29;20270;-75
2023/12/11 08:49:46;;;;;;;11.13;0.97;;;11.10;99.90;;;;;;4898954;29;20614;-73
2023/12/11 08:52:12;;;;;;;11.17;1.00;;;11.10;99.90;;;;;;4914597;29;20751;-70
2023/12/11 08:54:39;;;;;;;5.60;1.20;;;11.10;99.90;;;;;;4912505;29;20231;-73
2023/12/11 08:57:06;;;;;;;8.13;0.90;;;11.10;99.90;;;;;;4898949;29;20284;-75
2023/12/11 08:59:33;;;;;;;3.17;0.60;;;11.10;99.90;;;;;;4898956;29;20277;-70
2023/12/11 09:02:01;;;;;;;4.23;0.73;;;11.10;99.90;;;;;;4898964;29;20254;-75
2023/12/11 09:04:28;;;;;;;10.63;1.03;;;11.10;99.90;;;;;;4911422;29;20270;-71
2023/12/11 09:06:55;;;;;;;6.37;0.70;;;11.20;99.90;;;;;;4898748;29;20326;-72
2023/12/11 09:09:22;;;;;;;7.77;2.07;;;11.20;99.90;;;;;;4897549;29;20670;-74
2023/12/11 09:11:49;;;;;;;4.80;1.07;;;11.40;99.90;;;;;;4898875;29;20211;-72
2023/12/11 09:14:16;;;;;;;9.00;1.17;;;11.30;99.90;;;;;;4898151;29;20622;-70
2023/12/11 09:16:43;;;;;;;5.03;0.73;;;11.30;99.90;;;;;;4898818;29;20269;-69
2023/12/11 09:19:12;;;;;;;6.80;0.80;;;11.20;99.90;;;;;;4898759;29;20210;-72
2023/12/11 09:21:40;;;;;;;7.57;1.20;;;11.20;99.90;;;;;;4880111;29;20211;-71
2023/12/11 09:24:07;;;;;;;6.83;1.27;;;11.30;99.90;;;;;;4880223;29;20745;-77
2023/12/11 09:26:35;;;;;;;9.53;1.00;;;11.30;99.90;;;;;;4898389;29;20222;-77
2023/12/11 09:29:02;;;;;;;4.43;0.97;;;11.30;99.90;;;;;;4898564;29;20277;-74
2023/12/11 09:31:29;;;;;;;4.13;0.87;;;11.30;99.90;;;;;;4898394;29;20274;-76
2023/12/11 09:33:56;;;;;;;6.77;0.83;;;11.30;99.90;;;;;;4898666;29;20626;-74
2023/12/11 09:36:24;;;;;;;11.23;0.80;;;11.40;99.90;;;;;;4898105;29;20231;-72
2023/12/11 09:38:51;;;;;;;4.87;1.10;;;11.40;99.90;;;;;;4898538;29;20246;-71
2023/12/11 09:41:18;;;;;;;7.07;2.00;;;11.50;99.90;;;;;;4901164;29;20241;-73
2023/12/11 09:43:47;;;;;;;5.77;0.90;;;11.60;99.90;;;;;;4898053;29;20207;-73
2023/12/11 09:46:17;;;;;;;9.67;1.57;;;11.60;99.90;;;;;;4897702;29;20231;-74
2023/12/11 09:48:44;;;;;;;6.17;0.77;;;11.70;99.90;;;;;;4897665;29;20660;-72
2023/12/11 09:51:13;;;;;;;7.83;1.10;;;11.60;99.90;;;;;;4898122;29;20206;-73
2023/12/11 09:53:42;;;;;;;9.40;1.10;;;11.50;99.90;;;;;;4898154;29;20206;-72
2023/12/11 09:56:12;;;;;;;2.50;0.70;;;11.50;99.90;;;;;;4897768;29;20337;-71
2023/12/11 09:58:40;;;;;;;5.83;0.60;;;11.60;99.90;;;;;;4897700;29;20270;-72
2023/12/11 10:01:07;;;;;;;4.13;1.00;;;11.50;99.90;;;;;;4897811;29;20657;-76
2023/12/11 10:03:34;;;;;;;7.83;0.77;;;11.40;99.90;;;;;;4897678;29;20274;-77
2023/12/11 10:06:03;;;;;;;7.83;0.97;;;11.40;99.90;;;;;;4897499;29;20272;-72
2023/12/11 10:08:30;;;;;;;8.63;1.87;;;11.50;99.90;;;;;;4897587;29;20237;-73
2023/12/11 10:11:09;;;;;;;8.93;1.10;;;11.50;99.90;;;;;;4898104;29;20238;-75
2023/12/11 10:13:36;;;;;;;4.17;0.77;;;11.50;99.90;;;;;;4897588;29;20206;-76
2023/12/11 10:16:04;;;;;;;5.67;0.80;;;11.40;99.90;;;;;;4897546;29;20230;-76
2023/12/11 10:18:32;;;;;;;7.20;1.00;;;11.30;99.90;;;;;;4897409;29;20198;-76
2023/12/11 10:21:00;;;;;;;8.20;1.30;;;11.20;99.90;;;;;;4897694;29;20255;-77
2023/12/11 10:23:27;;;;;;;6.03;1.23;;;11.20;99.90;;;;;;4897696;29;20614;-75
2023/12/11 10:26:04;;;;;;;3.60;0.80;;;11.30;99.90;;;;;;4897619;29;20227;-77
2023/12/11 10:28:33;;;;;;;9.57;0.90;;;11.40;99.90;;;;;;4897137;29;20589;-78
2023/12/11 10:31:01;;;;;;;7.17;0.70;;;11.30;99.90;;;;;;4897731;29;20217;-78
2023/12/11 10:33:30;;;;;;;3.80;1.10;;;11.30;99.90;;;;;;4897550;29;20233;-76
2023/12/11 10:36:10;;;;;;;5.43;0.80;;;11.30;99.90;;;;;;4896797;29;20241;-77
2023/12/11 10:38:37;;;;;;;8.17;0.93;;;11.30;99.90;;;;;;4901961;29;20206;-74
2023/12/11 10:41:04;;;;;;;7.37;0.83;;;11.30;99.90;;;;;;4914176;29;20206;-78
2023/12/11 10:43:41;;;;;;;5.83;0.70;;;11.40;99.90;;;;;;4911813;29;20309;-78
2023/12/11 10:46:08;;;;;;;6.30;0.70;;;11.30;99.90;;;;;;4897249;29;20253;-74
2023/12/11 10:48:36;;;;;;;5.57;0.70;;;11.30;99.90;;;;;;4897268;29;20312;-75
2023/12/11 10:51:04;;;;;;;2.00;0.70;;;11.30;99.90;;;;;;4897088;29;20704;-74
2023/12/11 10:53:31;;;;;;;3.73;1.20;;;11.40;99.90;;;;;;4893960;29;20285;-75
2023/12/11 10:56:01;;;;;;;3.03;0.77;;;11.50;99.90;;;;;;4893961;29;20309;-75
2023/12/11 10:58:28;;;;;;;4.73;0.80;;;11.60;99.90;;;;;;4894267;29;20241;-75
2023/12/11 11:00:59;;;;;;;5.77;0.50;;;11.60;99.90;;;;;;4896180;29;20289;-75
2023/12/11 11:03:27;;;;;;;5.07;0.70;;;11.80;99.90;;;;;;4894396;29;20245;-77
2023/12/11 11:05:55;;;;;;;4.17;0.70;;;11.80;99.90;;;;;;4896970;29;20302;-74
2023/12/11 11:08:28;;;;;;;2.90;0.40;;;11.80;99.90;;;;;;4895471;29;20233;-75
2023/12/11 11:11:00;;;;;;;4.80;0.60;;;11.90;99.90;;;;;;4896706;29;20205;-75
2023/12/11 11:13:33;;;;;;;8.67;1.97;;;12.00;99.90;;;;;;4894465;29;20293;-73
2023/12/11 11:16:02;;;;;;;4.20;0.70;;;11.90;99.90;;;;;;4891863;29;20265;-73
2023/12/11 11:18:29;;;;;;;7.03;0.90;;;11.80;99.90;;;;;;4895593;29;20210;-74
2023/12/11 11:21:12;;;;;;;2.67;0.60;;;11.80;99.90;;;;;;4895689;29;20297;-75
2023/12/11 11:23:43;;;;;;;2.13;0.40;;;11.70;99.90;;;;;;4895413;29;20210;-75
2023/12/11 11:26:31;;;;;;;6.50;0.60;;;11.80;99.90;;;;;;4896631;29;20264;-74
2023/12/11 11:28:58;;;;;;;3.67;0.53;;;11.90;99.90;;;;;;4896237;29;20244;-76
2023/12/11 11:31:49;;;;;;;3.60;0.77;;;11.90;99.90;;;;;;4897028;29;20297;-76
2023/12/11 11:34:15;;;;;;;3.27;0.50;;;12.00;99.90;;;;;;4900108;29;20207;-77
2023/12/11 11:36:47;;;;;;;3.63;0.40;;;12.10;99.90;;;;;;4900528;29;20293;-74
2023/12/11 11:39:14;;;;;;;3.77;0.50;;;12.00;99.90;;;;;;4902336;29;20203;-76
2023/12/11 11:41:43;;;;;;;4.97;1.43;;;12.00;99.90;;;;;;4919106;29;20293;-72
2023/12/11 11:44:10;;;;;;;4.13;0.50;;;12.00;99.90;;;;;;4912710;29;20294;-71
2023/12/11 11:46:53;;;;;;;1.80;0.60;;;12.00;99.90;;;;;;4899890;29;20245;-71
2023/12/11 11:49:31;;;;;;;5.07;0.37;;;12.10;99.90;;;;;;4899306;29;20240;-71
2023/12/11 11:52:00;;;;;;;2.73;0.90;;;12.10;99.90;;;;;;4899025;29;20206;-71
2023/12/11 11:54:30;;;;;;;2.37;0.60;;;12.20;99.90;;;;;;4900187;29;20309;-68
2023/12/11 11:56:57;;;;;;;2.87;0.60;;;12.20;99.90;;;;;;4900352;29;20253;-70
2023/12/11 11:59:24;;;;;;;6.03;0.90;;;12.20;99.90;;;;;;4899981;29;20220;-70
2023/12/11 12:01:57;;;;;;;2.47;0.50;;;12.30;99.90;;;;;;4899826;29;20656;-70
2023/12/11 12:04:31;;;;;;;6.63;1.13;;;12.30;99.90;;;;;;4899903;29;20214;-71
2023/12/11 12:07:00;;;;;;;3.20;0.60;;;12.50;99.90;;;;;;4900209;29;20248;-68
2023/12/11 12:09:27;;;;;;;4.00;0.90;;;12.40;99.90;;;;;;4899363;29;20325;-69
2023/12/11 12:11:54;;;;;;;5.83;0.67;;;12.40;99.90;;;;;;4899645;29;20245;-68
2023/12/11 12:14:22;;;;;;;6.13;0.87;;;12.40;99.90;;;;;;4899612;29;20237;-69
2023/12/11 12:16:49;;;;;;;5.83;0.60;;;12.30;99.90;;;;;;4899707;29;20222;-70
2023/12/11 12:19:19;;;;;;;4.10;0.60;;;12.40;99.90;;;;;;4899768;29;20274;-70
2023/12/11 12:21:51;;;;;;;4.23;0.70;;;12.50;99.90;;;;;;4899626;29;20210;-71
2023/12/11 12:24:18;;;;;;;3.57;0.70;;;12.70;99.90;;;;;;4899381;29;20210;-72
2023/12/11 12:26:46;;;;;;;4.03;0.70;;;12.70;99.90;;;;;;4899805;29;20210;-69
2023/12/11 12:29:14;;;;;;;5.03;0.83;;;12.60;99.90;;;;;;4899108;29;21191;-68
2023/12/11 12:31:41;;;;;;;5.70;0.70;;;12.60;99.90;;;;;;4899514;29;20215;-69
2023/12/11 12:34:08;;;;;;;3.10;0.83;;;12.50;99.90;;;;;;4899297;29;20741;-69
2023/12/11 12:36:37;;;;;;;3.43;0.60;;;12.40;99.90;;;;;;4899593;29;20254;-70
2023/12/11 12:39:05;;;;;;;4.10;0.50;;;12.50;99.90;;;;;;4898981;29;20238;-69
2023/12/11 12:41:32;;;;;;;5.43;0.70;;;12.40;99.90;;;;;;4896508;29;20282;-69
2023/12/11 12:43:59;;;;;;;5.20;0.70;;;12.40;99.90;;;;;;4897474;29;20262;-69
2023/12/11 12:46:28;;;;;;;3.10;0.70;;;12.30;99.90;;;;;;4898585;29;20222;-69
2023/12/11 12:48:56;;;;;;;4.27;0.57;;;12.30;99.90;;;;;;4898862;29;20266;-69
2023/12/11 12:51:23;;;;;;;2.73;0.60;;;12.40;99.90;;;;;;4899267;29;20577;-69
2023/12/11 12:53:52;;;;;;;3.33;1.17;;;12.40;99.90;;;;;;4899213;29;20241;-70
2023/12/11 12:56:22;;;;;;;5.77;1.07;;;12.30;99.90;;;;;;4899164;29;20650;-70
2023/12/11 12:58:49;;;;;;;2.57;0.47;;;12.20;99.90;;;;;;4898875;29;20210;-69
2023/12/11 13:01:16;;;;;;;3.73;0.70;;;12.20;99.90;;;;;;4899026;29;20214;-71
2023/12/11 13:03:45;;;;;;;4.30;0.73;;;12.20;99.90;;;;;;4899356;29;20245;-70
2023/12/11 13:06:25;;;;;;;3.80;0.70;;;12.20;99.90;;;;;;4898349;29;20305;-71
2023/12/11 13:08:53;;;;;;;6.70;0.53;;;12.30;99.90;;;;;;4898418;29;20226;-68
2023/12/11 13:11:20;;;;;;;5.03;1.07;;;12.20;99.90;;;;;;4898595;29;20203;-69
2023/12/11 13:13:54;;;;;;;4.47;0.63;;;12.30;99.90;;;;;;4899020;29;20214;-68
2023/12/11 13:16:22;;;;;;;3.97;0.90;;;12.40;99.90;;;;;;4898763;29;20765;-69
2023/12/11 13:18:51;;;;;;;2.37;0.73;;;12.50;99.90;;;;;;4898708;29;20212;-69
2023/12/11 13:21:18;;;;;;;4.93;0.90;;;12.40;99.90;;;;;;4898465;29;20202;-68
2023/12/11 13:23:45;;;;;;;6.07;1.13;;;12.50;99.90;;;;;;4898885;29;20241;-69
2023/12/11 13:26:14;;;;;;;7.77;0.93;;;12.50;99.90;;;;;;4898878;29;20262;-69
2023/12/11 13:28:41;;;;;;;5.80;0.90;;;12.50;99.90;;;;;;4897254;29;20324;-71
2023/12/11 13:31:08;;;;;;;2.20;0.80;;;12.30;99.90;;;;;;4897173;29;20255;-69
2023/12/11 13:33:35;;;;;;;2.87;0.83;;;12.30;99.90;;;;;;4895465;29;20246;-72
2023/12/11 13:36:02;;;;;;;5.10;0.57;;;12.30;99.90;;;;;;4897932;29;20233;-69
2023/12/11 13:38:29;;;;;;;4.87;0.70;;;12.20;99.90;;;;;;4898098;29;20237;-69
2023/12/11 13:40:56;;;;;;;4.37;0.60;;;12.20;99.90;;;;;;4895627;29;20642;-73
2023/12/11 13:43:24;;;;;;;2.77;0.77;;;12.20;99.90;;;;;;4898345;29;20376;-72
2023/12/11 13:45:52;;;;;;;8.07;0.97;;;12.30;99.90;;;;;;4897477;29;20261;-71
2023/12/11 13:48:19;;;;;;;4.33;0.60;;;12.20;99.90;;;;;;4897555;29;20289;-70
2023/12/11 13:50:46;;;;;;;6.70;1.20;;;12.20;99.90;;;;;;4898409;29;20206;-70
2023/12/11 13:53:13;;;;;;;3.13;1.00;;;12.20;99.90;;;;;;4896592;29;20202;-70
2023/12/11 13:55:39;;;;;;;5.43;0.53;;;12.20;99.90;;;;;;4897290;29;20314;-73
2023/12/11 13:58:06;;;;;;;2.80;0.73;;;12.10;99.90;;;;;;4897971;29;20297;-73
2023/12/11 14:00:34;;;;;;;3.43;0.67;;;12.10;99.90;;;;;;4897990;29;20242;-69
2023/12/11 14:03:01;;;;;;;4.07;1.27;;;12.20;99.90;;;;;;4897919;29;20242;-70
2023/12/11 14:05:28;;;;;;;2.93;0.67;;;12.20;99.90;;;;;;4897404;29;20294;-69
2023/12/11 14:07:55;;;;;;;2.03;0.63;;;12.20;99.90;;;;;;4895991;29;20202;-71
2023/12/11 14:10:22;;;;;;;4.17;0.63;;;12.20;99.90;;;;;;4895330;29;20720;-72
